»·PEaware :: N572G KLGB-KBFL

N572G :: KLGB-KBFL

FLIGHT INFORMATION

Flight Status: Arrived
Operator: Privately registered:
United States
More flights under this callsign
Pilot: Anonymous 8799 (8799)
Aircraft: BEECH AIRCRAFT BEECH AIRLINER
(B190)
More flights by this aircraft type
Origin: KLGB Long Beach
United States
Destination: KBFL Meadows
United States
More flights between these airports :: More routes between these airports
Route: SLI V459 LHS FASTO1
File this flight plan on PilotEdge
Remarks:
Altitude:
(Current/Filed)
10,000ft
Speed:
(Current/Filed)
220kts
Departed: 06-Jan-18 10:25 AM
Arrived: 06-Jan-18 11:08 AM
Distance/Time
Traveled:
107nm/0:43
Distance/Time
To Go:
Arrived

Flight Plot

Page will automatically refresh every two minutes.


Map Options




Map Legend


Flown Route
Filed Route
Departure Airport
Arrival Airport
Navaid (VOR, NDB)
Fix

Horizontal Profiles

Position Reports

Time Latitude Longitude Heading Altitude Ground
Speed
06-Jan-18 10:13 33.816181 -118.141428 270 45ft 0kts
06-Jan-18 10:14 33.816181 -118.141428 270 45ft 0kts
06-Jan-18 10:15 33.816181 -118.141428 270 45ft 0kts
06-Jan-18 10:16 33.816181 -118.141428 270 45ft 0kts
06-Jan-18 10:17 33.816181 -118.141428 270 45ft 0kts
06-Jan-18 10:18 33.816181 -118.141428 270 45ft 0kts
06-Jan-18 10:19 33.816181 -118.141428 270 45ft 0kts
06-Jan-18 10:20 33.816181 -118.141428 270 45ft 0kts
06-Jan-18 10:21 33.816181 -118.141428 270 45ft 0kts
06-Jan-18 10:22 33.815580 -118.141511 179 45ft 7kts
06-Jan-18 10:23 33.815033 -118.141672 277 45ft 0kts
06-Jan-18 10:24 33.815033 -118.141672 277 45ft 0kts
06-Jan-18 10:25 33.815033 -118.141672 277 45ft 0kts
06-Jan-18 10:26 33.814694 -118.143568 196 45ft 0kts
06-Jan-18 10:27 33.814694 -118.143568 196 45ft 0kts
06-Jan-18 10:28 33.814694 -118.143568 196 45ft 0kts
06-Jan-18 10:29 33.814694 -118.143568 196 45ft 0kts
06-Jan-18 10:30 33.813851 -118.144764 266 45ft 27kts
06-Jan-18 10:31 33.811057 -118.186434 265 679ft 193kts
06-Jan-18 10:32 33.766402 -118.231458 212 1327ft 232kts
06-Jan-18 10:33 33.713362 -118.268284 196 2014ft 234kts
06-Jan-18 10:34 33.652815 -118.282944 192 2793ft 233kts
06-Jan-18 10:35 33.592942 -118.296387 192 3540ft 233kts
06-Jan-18 10:36 33.529391 -118.309576 192 4331ft 233kts
06-Jan-18 10:37 33.465955 -118.316197 154 5101ft 240kts
06-Jan-18 10:38 33.474892 -118.259188 15 5944ft 219kts
06-Jan-18 10:39 33.531101 -118.228447 24 6744ft 227kts
06-Jan-18 10:40 33.586640 -118.191485 25 7539ft 230kts
06-Jan-18 10:41 33.641811 -118.153549 25 8328ft 229kts
06-Jan-18 10:42 33.696046 -118.115852 25 9104ft 229kts
06-Jan-18 10:43 33.751550 -118.077390 29 9872ft 244kts
06-Jan-18 10:44 33.814356 -118.073313 330 10016ft 253kts
06-Jan-18 10:45 33.875726 -118.108363 329 10004ft 260kts
06-Jan-18 10:46 33.940228 -118.145600 330 10005ft 252kts
06-Jan-18 10:47 34.000078 -118.180070 330 10011ft 248kts
06-Jan-18 10:48 34.061709 -118.215976 330 10010ft 250kts
06-Jan-18 10:49 34.121665 -118.250714 330 10007ft 252kts
06-Jan-18 10:50 34.182746 -118.286102 330 10003ft 252kts
06-Jan-18 10:51 34.245277 -118.322380 330 9998ft 252kts
06-Jan-18 10:52 34.307882 -118.358759 330 9998ft 252kts
06-Jan-18 10:53 34.370909 -118.395446 330 9998ft 252kts
06-Jan-18 10:54 34.433733 -118.432058 330 9999ft 252kts
06-Jan-18 10:55 34.496987 -118.469003 329 10001ft 254kts
06-Jan-18 10:56 34.560268 -118.506042 329 10001ft 254kts
06-Jan-18 10:57 34.623495 -118.543072 329 10004ft 255kts
06-Jan-18 10:58 34.687588 -118.580146 332 10013ft 259kts
06-Jan-18 10:59 34.738481 -118.626792 310 10038ft 252kts
06-Jan-18 11:00 34.784926 -118.680350 312 10040ft 253kts
06-Jan-18 11:01 34.837573 -118.736839 315 9393ft 253kts
06-Jan-18 11:02 34.892276 -118.786488 319 8694ft 243kts
06-Jan-18 11:03 34.945737 -118.833835 319 7748ft 237kts
06-Jan-18 11:04 35.003411 -118.870350 336 6753ft 235kts
06-Jan-18 11:05 35.061723 -118.895667 337 5732ft 217kts
06-Jan-18 11:06 35.115773 -118.919208 339 4759ft 213kts
06-Jan-18 11:07 35.169011 -118.942371 340 3815ft 215kts
06-Jan-18 11:08 35.225368 -118.966917 340 2829ft 219kts
06-Jan-18 11:09 35.282591 -118.991887 340 1835ft 216kts
06-Jan-18 11:10 35.330867 -119.013074 339 1528ft 166kts
06-Jan-18 11:11 35.372314 -119.023373 352 1304ft 164kts
06-Jan-18 11:12 35.408540 -119.030917 338 888ft 109kts
06-Jan-18 11:13 35.431517 -119.053384 315 501ft 98kts
06-Jan-18 11:14 35.440484 -119.062542 44 498ft 0kts
06-Jan-18 11:15 35.439945 -119.061339 134 499ft 13kts
06-Jan-18 11:16 35.437539 -119.057095 71 499ft 13kts
06-Jan-18 11:17 35.437548 -119.055487 105 499ft 0kts
06-Jan-18 11:18 35.437548 -119.055487 105 499ft 0kts
06-Jan-18 11:19 35.437548 -119.055487 105 499ft 0kts
06-Jan-18 11:20 35.437548 -119.055487 104 499ft 0kts
06-Jan-18 11:21 35.437548 -119.055487 105 499ft 0kts
06-Jan-18 11:22 35.437548 -119.055487 105 499ft 0kts
06-Jan-18 11:23 35.437548 -119.055487 105 499ft 0kts
06-Jan-18 11:24 35.437548 -119.055487 105 499ft 0kts
06-Jan-18 11:25 35.437527 -119.055455 145 499ft 0kts
06-Jan-18 11:26 35.437470 -119.055475 247 499ft 0kts
06-Jan-18 11:27 35.437590 -119.056753 264 499ft 0kts
06-Jan-18 11:28 35.436757 -119.057474 140 499ft 13kts
06-Jan-18 11:29 35.433001 -119.052951 136 499ft 21kts

Navigation Log

Ident Type
1. KLGB Airport
2. SLI Navaid
3. DODGR Fix
4. DARTS Fix
5. BERRI Fix
6. KIMMO Fix
7. SAUGS Fix
8. LHS Navaid
9. IBWEN Fix
10. LEBEC Fix
11. FASTO Fix
12. JUPEX Fix
13. KBFL Airport